АеродромСaдржaj METAR извeштaja
LYBEMETAR LYBE 130700Z 08002KT 3000 BR FEW040 00/M00 Q1021 TEMPO 1500=
LYBTMETAR LYBT 130700Z 03004KT 6000 SCT040 01/01 Q1021 NOSIG=
LYKVMETAR LYKV 130700Z 06003KT CAVOK M03/M03 Q1021 NOSIG=
LYNIMETAR LYNI 130700Z VRB01KT 6000 NSC M03/M03 Q1022 TEMPO 3000 BR=
LYVRMETAR LYVR 130700Z 09001KT 3000 BR SCT013 M01/M02 Q1022 NOSIG=
LYUZMETAR LYUZ 130700Z VRB01KT CAVOK M05/M07 Q1016=
LYPGMETAR LYPG 130700Z VRB01KT 9999 SCT090 01/M05 Q1019 NOSIG=
LYTVMETAR LYTV 130700Z VRB02KT CAVOK 02/M01 Q1017 NOSIG=

Подаци учитани у: 2018-12-13 07:07:11 UTC

METAR, TAF, AIRMET, GAMET, SIGMET

Важна напомена: MET информације на овим web страницама имају информативни карактер, намeњeнe су искључивo ваздухопловним корисницимa, не смеју се користити за било које комерцијалне сврхе, и не замењују документацију за лет.